Terminal Aerodrome Forecast
Issued by NWS Wilmington, OH

Current Version | Previous Version | Graphics & Text | Print | Product List | Glossary On
Versions: 1 2 3 4 5 6 7 8 9 10 11 12 13 14 15 16 17 18 19 20 21
000
FTUS41 KILN 241741 AAA
TAFDAY
TAF AMD
KDAY 241741Z 2418/2518 21016G24KT P6SM SCT040
      TEMPO 2419/2422 BKN040
     FM242300 21013KT P6SM SCT045
     FM250500 18009KT P6SM BKN200
     FM251500 18011KT P6SM SCT035 BKN150=

USA.gov is the U.S. government's official web portal to all federal, state and local government web resources and services.